Time;durP1;ratioP1;P1;durP2;ratioP2;P2;SDS_P1;SDS_P2;PMS_P1;PMS_P2;Temp;Humidity;BMP_temperature;BMP_pressure;BME280_temperature;BME280_humidity;BME280_pressure;Samples;Min_cycle;Max_cycle;Signal;HPM_P1;HPM_P2
2022/03/08 00:02:00;;;;;;;3.03;1.35;;;16.70;35.40;;;;;;5119180;27;45271;-78
2022/03/08 00:04:27;;;;;;;2.22;1.30;;;16.70;35.50;;;;;;5125846;27;45152;-79
2022/03/08 00:06:54;;;;;;;1.75;1.30;;;16.70;35.70;;;;;;5123365;27;45385;-78
2022/03/08 00:09:21;;;;;;;2.08;1.40;;;16.70;35.80;;;;;;5123077;27;47113;-79
2022/03/08 00:11:48;;;;;;;1.63;1.38;;;16.60;35.40;;;;;;5120667;27;45152;-78
2022/03/08 00:14:15;;;;;;;2.38;1.50;;;16.60;35.40;;;;;;5125144;27;45223;-78
2022/03/08 00:16:43;;;;;;;1.83;1.40;;;16.60;35.10;;;;;;5124324;27;45296;-78
2022/03/08 00:19:10;;;;;;;1.90;1.23;;;16.60;35.10;;;;;;5111751;27;45985;-78
2022/03/08 00:21:37;;;;;;;1.95;1.23;;;16.60;35.10;;;;;;5127943;27;45181;-78
2022/03/08 00:24:04;;;;;;;1.30;1.05;;;16.60;35.10;;;;;;5129007;27;45177;-78
2022/03/08 00:26:31;;;;;;;1.23;1.02;;;16.70;35.40;;;;;;5128316;27;45195;-78
2022/03/08 00:28:58;;;;;;;1.15;1.02;;;16.70;35.20;;;;;;5110612;27;48336;-78
2022/03/08 00:31:25;;;;;;;1.60;1.30;;;16.70;35.10;;;;;;5111940;27;45417;-78
2022/03/08 00:33:53;;;;;;;1.80;1.38;;;16.70;35.00;;;;;;5122852;27;45293;-78
2022/03/08 00:36:20;;;;;;;1.92;1.27;;;16.80;35.40;;;;;;5116886;27;45512;-78
2022/03/08 00:38:47;;;;;;;1.48;1.10;;;16.80;35.00;;;;;;5121318;27;47018;-78
2022/03/08 00:41:14;;;;;;;1.23;1.13;;;16.80;35.10;;;;;;5128832;27;45276;-78
2022/03/08 00:43:41;;;;;;;1.40;1.30;;;16.80;34.90;;;;;;5123195;27;45338;-78
2022/03/08 00:46:07;;;;;;;1.65;1.38;;;16.80;34.80;;;;;;5128171;27;45464;-78
2022/03/08 00:48:34;;;;;;;2.33;1.30;;;16.70;34.60;;;;;;5126403;27;46282;-78
2022/03/08 00:51:03;;;;;;;2.42;1.65;;;16.70;34.30;;;;;;5109739;27;45242;-78
2022/03/08 00:53:30;;;;;;;2.60;1.40;;;16.70;34.40;;;;;;5114570;27;45269;-78
2022/03/08 00:55:56;;;;;;;2.25;1.45;;;16.70;34.20;;;;;;5112116;27;45380;-78
2022/03/08 00:58:23;;;;;;;2.53;1.40;;;16.70;34.30;;;;;;5127050;27;45285;-78
2022/03/08 01:00:50;;;;;;;1.83;1.50;;;16.70;34.50;;;;;;5118752;27;45273;-79
2022/03/08 01:03:17;;;;;;;2.45;1.48;;;16.70;34.40;;;;;;5123866;27;45371;-78
2022/03/08 01:05:44;;;;;;;1.50;1.27;;;16.60;34.10;;;;;;5127178;27;45466;-78
2022/03/08 01:08:13;;;;;;;2.50;1.20;;;16.70;34.30;;;;;;5109781;27;45360;-78
2022/03/08 01:10:40;;;;;;;1.58;1.23;;;16.70;34.40;;;;;;5107956;27;45187;-78
2022/03/08 01:13:07;;;;;;;1.77;1.38;;;16.70;34.80;;;;;;5116020;27;45166;-78
2022/03/08 01:15:34;;;;;;;1.85;1.00;;;16.70;34.40;;;;;;5114539;27;45443;-78
2022/03/08 01:18:01;;;;;;;1.60;1.30;;;16.70;34.50;;;;;;5106435;27;46214;-79
2022/03/08 01:20:28;;;;;;;1.48;1.10;;;16.70;34.40;;;;;;5127299;27;45264;-78
2022/03/08 01:22:55;;;;;;;1.40;1.27;;;16.80;34.40;;;;;;5126292;27;45119;-79
2022/03/08 01:25:24;;;;;;;2.08;1.33;;;16.70;34.40;;;;;;5119142;27;45147;-78
2022/03/08 01:27:51;;;;;;;1.58;1.25;;;16.80;34.60;;;;;;5112929;27;45208;-78
2022/03/08 01:30:21;;;;;;;1.88;1.40;;;16.80;34.40;;;;;;5119329;27;46263;-78
2022/03/08 01:32:48;;;;;;;2.17;1.42;;;16.70;34.00;;;;;;5116744;27;45275;-78
2022/03/08 01:35:16;;;;;;;1.95;1.30;;;16.70;34.10;;;;;;5125600;27;45347;-78
2022/03/08 01:37:43;;;;;;;2.35;1.40;;;16.70;33.90;;;;;;5115883;27;47562;-78
2022/03/08 01:40:15;;;;;;;2.00;1.40;;;16.70;33.90;;;;;;5118367;27;45489;-78
2022/03/08 01:42:45;;;;;;;1.92;1.30;;;16.70;34.20;;;;;;5118315;27;45351;-78
2022/03/08 01:45:12;;;;;;;1.65;1.35;;;16.70;34.40;;;;;;5119711;27;45591;-78
2022/03/08 01:47:39;;;;;;;2.67;1.50;;;16.60;34.30;;;;;;5119291;27;45429;-78
2022/03/08 01:50:06;;;;;;;1.27;1.13;;;16.60;34.20;;;;;;5128502;27;45317;-78
2022/03/08 01:52:34;;;;;;;1.33;1.23;;;16.70;34.40;;;;;;5131370;27;45292;-78
2022/03/08 01:55:01;;;;;;;2.25;1.58;;;16.70;34.40;;;;;;5136584;27;45199;-78
2022/03/08 01:57:28;;;;;;;1.45;1.13;;;16.70;34.40;;;;;;5126880;27;45768;-78
2022/03/08 01:59:56;;;;;;;1.48;1.23;;;16.70;34.50;;;;;;5120858;27;45582;-78
2022/03/08 02:02:23;;;;;;;1.63;1.20;;;16.70;34.50;;;;;;5126180;27;45294;-78
2022/03/08 02:04:51;;;;;;;1.80;1.10;;;16.70;34.50;;;;;;5120407;27;45542;-78
2022/03/08 02:07:19;;;;;;;1.30;1.00;;;16.80;34.60;;;;;;5113594;27;45550;-78
2022/03/08 02:09:46;;;;;;;2.00;1.38;;;16.80;34.70;;;;;;5123948;27;45286;-77
2022/03/08 02:12:13;;;;;;;1.35;1.17;;;16.80;34.50;;;;;;5127923;27;45478;-78
2022/03/08 02:14:41;;;;;;;1.50;1.10;;;16.80;34.50;;;;;;5128359;27;45109;-78
2022/03/08 02:17:10;;;;;;;1.50;1.20;;;16.80;34.00;;;;;;5117457;27;46399;-78
2022/03/08 02:19:37;;;;;;;1.60;1.27;;;16.70;33.70;;;;;;5114410;27;45280;-78
2022/03/08 02:22:05;;;;;;;1.40;1.30;;;16.70;33.50;;;;;;5108169;27;45189;-78
2022/03/08 02:24:32;;;;;;;1.90;1.05;;;16.70;33.40;;;;;;5109594;27;45258;-78
2022/03/08 02:27:00;;;;;;;1.88;1.15;;;16.70;33.90;;;;;;5120967;27;46312;-78
2022/03/08 02:29:28;;;;;;;1.45;1.10;;;16.70;34.00;;;;;;5114070;27;45603;-78
2022/03/08 02:31:55;;;;;;;1.98;1.33;;;16.70;33.90;;;;;;5106313;27;45327;-78
2022/03/08 02:34:22;;;;;;;1.80;1.20;;;16.70;33.70;;;;;;5120798;27;45527;-78
2022/03/08 02:37:00;;;;;;;1.55;1.20;;;16.70;33.80;;;;;;5127375;27;47909;-79
2022/03/08 02:39:28;;;;;;;1.58;1.35;;;16.60;33.60;;;;;;5114142;27;45228;-78
2022/03/08 02:41:55;;;;;;;1.58;1.23;;;16.60;33.50;;;;;;5117608;27;45151;-78
2022/03/08 02:44:22;;;;;;;2.50;1.20;;;16.70;33.80;;;;;;5128369;27;45481;-78
2022/03/08 02:46:48;;;;;;;1.52;1.10;;;16.70;33.90;;;;;;5120710;27;46183;-78
2022/03/08 02:49:15;;;;;;;2.35;1.38;;;16.70;34.00;;;;;;5111286;27;45626;-78
2022/03/08 02:51:42;;;;;;;1.30;1.17;;;16.70;34.00;;;;;;5117940;27;46331;-78
2022/03/08 02:54:09;;;;;;;1.35;1.25;;;16.70;33.90;;;;;;5111287;27;45179;-78
2022/03/08 02:56:38;;;;;;;1.95;1.20;;;16.80;33.90;;;;;;5128416;27;45143;-78
2022/03/08 02:59:05;;;;;;;1.52;1.10;;;16.80;34.10;;;;;;5118656;27;45224;-78
2022/03/08 03:01:32;;;;;;;1.25;1.00;;;16.70;33.90;;;;;;5113849;27;45236;-78
2022/03/08 03:03:58;;;;;;;1.52;1.10;;;16.80;33.60;;;;;;5127873;27;45242;-78
2022/03/08 03:06:25;;;;;;;1.23;1.10;;;16.70;33.20;;;;;;5120484;27;46223;-78
2022/03/08 03:08:52;;;;;;;1.67;1.20;;;16.70;33.30;;;;;;5110703;27;45138;-78
2022/03/08 03:11:19;;;;;;;2.15;1.23;;;16.70;33.40;;;;;;5125423;27;45258;-78
2022/03/08 03:13:47;;;;;;;2.97;1.10;;;16.70;33.40;;;;;;5130334;27;45267;-78
2022/03/08 03:16:14;;;;;;;1.30;1.10;;;16.70;33.20;;;;;;5116138;27;46278;-78
2022/03/08 03:18:40;;;;;;;1.63;1.30;;;16.70;33.30;;;;;;5108101;27;45156;-78
2022/03/08 03:21:07;;;;;;;2.13;1.17;;;16.60;33.60;;;;;;5117136;27;45332;-78
2022/03/08 03:23:34;;;;;;;2.67;1.30;;;16.60;33.40;;;;;;5113120;27;45488;-78
2022/03/08 03:26:01;;;;;;;2.95;1.38;;;16.60;33.30;;;;;;5120869;27;45342;-78
2022/03/08 03:28:27;;;;;;;2.55;1.15;;;16.60;33.30;;;;;;5117749;27;45222;-78
2022/03/08 03:30:55;;;;;;;1.40;1.10;;;16.60;34.40;;;;;;5113457;27;45348;-78
2022/03/08 03:33:22;;;;;;;1.65;1.25;;;16.70;33.70;;;;;;5111103;27;45656;-78
2022/03/08 03:35:49;;;;;;;1.83;1.00;;;16.70;34.10;;;;;;5110874;27;45259;-78
2022/03/08 03:38:16;;;;;;;1.40;1.10;;;16.70;34.20;;;;;;5119350;27;45217;-78
2022/03/08 03:40:43;;;;;;;1.85;1.00;;;16.70;34.00;;;;;;5113523;27;45271;-77
2022/03/08 03:43:11;;;;;;;1.30;0.90;;;16.70;34.00;;;;;;5115539;27;45339;-77
2022/03/08 03:45:38;;;;;;;1.58;1.15;;;16.80;34.30;;;;;;5115312;27;45752;-78
2022/03/08 03:48:06;;;;;;;1.55;1.10;;;16.70;34.40;;;;;;5123847;27;45312;-78
2022/03/08 03:50:33;;;;;;;1.60;1.00;;;16.70;34.20;;;;;;5119719;27;45232;-78
2022/03/08 03:53:00;;;;;;;1.40;1.08;;;16.70;33.50;;;;;;5116884;27;45449;-78
2022/03/08 03:55:27;;;;;;;1.10;0.90;;;16.70;34.90;;;;;;5122942;27;46491;-78
2022/03/08 03:57:54;;;;;;;2.13;1.13;;;16.70;33.50;;;;;;5121410;27;45170;-78
2022/03/08 04:00:21;;;;;;;2.15;1.10;;;16.70;33.50;;;;;;5113963;27;45254;-77
2022/03/08 04:02:48;;;;;;;1.45;1.00;;;16.70;33.30;;;;;;5130976;27;45194;-77
2022/03/08 04:05:16;;;;;;;0.95;0.90;;;16.70;33.30;;;;;;5122922;27;46575;-77
2022/03/08 04:07:43;;;;;;;1.45;1.00;;;16.60;33.00;;;;;;5111571;27;45199;-78
2022/03/08 04:10:12;;;;;;;1.80;1.00;;;16.60;33.20;;;;;;5120986;27;45718;-79
2022/03/08 04:12:39;;;;;;;1.75;1.27;;;16.60;32.40;;;;;;5139928;27;45327;-78
2022/03/08 04:15:06;;;;;;;1.58;1.15;;;16.60;32.20;;;;;;5140144;27;46257;-78
2022/03/08 04:17:33;;;;;;;1.52;1.23;;;16.60;31.80;;;;;;5112422;27;45171;-78
2022/03/08 04:20:00;;;;;;;1.65;0.95;;;16.70;32.40;;;;;;5124188;27;45185;-78
2022/03/08 04:22:28;;;;;;;3.22;1.10;;;16.70;32.80;;;;;;5120238;27;45294;-78
2022/03/08 04:24:55;;;;;;;3.05;1.27;;;16.70;32.90;;;;;;5118376;27;46644;-78
2022/03/08 04:27:21;;;;;;;1.75;1.10;;;16.70;32.30;;;;;;5128126;27;45217;-78
2022/03/08 04:29:48;;;;;;;2.47;1.25;;;16.70;33.20;;;;;;5119810;27;45230;-78
2022/03/08 04:32:16;;;;;;;1.52;1.42;;;16.70;32.60;;;;;;5118937;27;45243;-78
2022/03/08 04:34:43;;;;;;;1.52;1.20;;;16.70;32.50;;;;;;5112512;27;45614;-78
2022/03/08 04:37:09;;;;;;;1.10;0.90;;;16.60;31.40;;;;;;5117965;27;45143;-78
2022/03/08 04:39:37;;;;;;;1.40;1.30;;;16.60;31.00;;;;;;5128202;27;45250;-78
2022/03/08 04:42:05;;;;;;;1.88;1.23;;;16.60;30.70;;;;;;5109072;27;45354;-78
2022/03/08 04:44:32;;;;;;;1.88;1.10;;;16.60;31.10;;;;;;5123132;27;45441;-78
2022/03/08 04:46:59;;;;;;;1.55;1.30;;;16.60;31.00;;;;;;5113976;27;46186;-78
2022/03/08 04:49:26;;;;;;;2.20;1.35;;;16.50;30.70;;;;;;5113951;27;45403;-78
2022/03/08 04:51:53;;;;;;;1.75;1.35;;;16.50;30.60;;;;;;5120987;27;45327;-78
2022/03/08 04:54:19;;;;;;;2.10;1.50;;;16.50;30.80;;;;;;5128022;27;47208;-78
2022/03/08 04:56:47;;;;;;;2.03;1.50;;;16.50;30.60;;;;;;5127166;27;45425;-78
2022/03/08 04:59:14;;;;;;;1.63;1.42;;;16.50;30.70;;;;;;5120501;27;45434;-78
2022/03/08 05:01:41;;;;;;;2.00;1.48;;;16.50;30.50;;;;;;5123589;27;45553;-78
2022/03/08 05:04:08;;;;;;;2.47;1.60;;;16.50;30.90;;;;;;5121566;27;47209;-79
2022/03/08 05:06:35;;;;;;;1.45;1.10;;;16.50;31.10;;;;;;5121012;27;45137;-78
2022/03/08 05:09:02;;;;;;;2.75;1.20;;;16.50;31.70;;;;;;5113891;27;45344;-78
2022/03/08 05:11:28;;;;;;;1.98;1.20;;;16.50;31.60;;;;;;5125361;27;45583;-78
2022/03/08 05:13:56;;;;;;;1.48;1.10;;;16.50;32.00;;;;;;5110224;27;46855;-78
2022/03/08 05:16:23;;;;;;;2.03;1.23;;;16.50;32.10;;;;;;5111102;27;45239;-78
2022/03/08 05:18:50;;;;;;;2.50;1.40;;;16.50;32.10;;;;;;5127179;27;45421;-77
2022/03/08 05:21:17;;;;;;;1.60;1.40;;;16.50;31.80;;;;;;5125945;27;45401;-78
2022/03/08 05:23:44;;;;;;;1.40;1.20;;;16.50;31.30;;;;;;5131122;27;45230;-78
2022/03/08 05:26:11;;;;;;;2.05;1.30;;;16.50;31.20;;;;;;5116110;27;45219;-78
2022/03/08 05:28:38;;;;;;;1.90;1.20;;;16.40;31.10;;;;;;5121526;27;45392;-78
2022/03/08 05:31:06;;;;;;;1.83;1.30;;;16.40;31.10;;;;;;5111339;27;45134;-78
2022/03/08 05:33:33;;;;;;;1.30;1.20;;;16.40;31.50;;;;;;5126202;27;48646;-78
2022/03/08 05:35:59;;;;;;;1.75;1.48;;;16.40;31.10;;;;;;5123585;27;45277;-78
2022/03/08 05:38:26;;;;;;;2.17;1.60;;;16.40;30.90;;;;;;5106666;27;45269;-78
2022/03/08 05:40:53;;;;;;;2.15;1.40;;;16.40;30.30;;;;;;5125451;27;45419;-78
2022/03/08 05:43:20;;;;;;;2.03;1.42;;;16.40;30.40;;;;;;5115322;27;45662;-78
2022/03/08 05:45:47;;;;;;;2.45;1.50;;;16.50;30.40;;;;;;5112577;27;45341;-78
2022/03/08 05:48:15;;;;;;;1.95;1.33;;;16.50;30.40;;;;;;5111811;27;45345;-78
2022/03/08 05:50:42;;;;;;;2.67;1.70;;;16.50;32.00;;;;;;5122612;27;45235;-78
2022/03/08 05:53:09;;;;;;;2.08;1.63;;;16.50;30.50;;;;;;5122562;27;45220;-78
2022/03/08 05:55:35;;;;;;;1.92;1.40;;;16.50;30.30;;;;;;5123327;27;45218;-78
2022/03/08 05:58:03;;;;;;;2.03;1.45;;;16.50;30.30;;;;;;5111781;27;45286;-78
2022/03/08 06:00:29;;;;;;;2.67;1.20;;;16.50;30.30;;;;;;5117479;27;45239;-78
2022/03/08 06:02:56;;;;;;;1.80;1.45;;;16.50;30.30;;;;;;5110894;27;46339;-78
2022/03/08 06:05:24;;;;;;;2.58;1.67;;;16.60;30.30;;;;;;5120630;27;45291;-78
2022/03/08 06:07:51;;;;;;;1.55;1.30;;;16.60;30.30;;;;;;5120979;27;45193;-78
2022/03/08 06:10:18;;;;;;;2.35;1.70;;;16.50;30.70;;;;;;5116117;27;45304;-79
2022/03/08 06:12:45;;;;;;;1.88;1.63;;;16.40;31.00;;;;;;5114535;27;47381;-78
2022/03/08 06:15:12;;;;;;;1.65;1.27;;;16.40;31.10;;;;;;5110691;27;45151;-79
2022/03/08 06:17:39;;;;;;;1.63;1.30;;;16.30;30.80;;;;;;5107017;27;45350;-79
2022/03/08 06:20:07;;;;;;;1.67;1.40;;;16.30;30.60;;;;;;5108811;27;45219;-78
2022/03/08 06:22:35;;;;;;;1.75;1.40;;;16.30;30.50;;;;;;5120784;27;46218;-78
2022/03/08 06:25:02;;;;;;;2.60;1.40;;;16.30;30.30;;;;;;5118728;27;45274;-78
2022/03/08 06:27:29;;;;;;;1.85;1.40;;;16.30;30.50;;;;;;5129843;27;45316;-78
2022/03/08 06:29:56;;;;;;;1.85;1.40;;;16.30;30.20;;;;;;5130018;27;45406;-78
2022/03/08 06:32:22;;;;;;;1.67;1.30;;;16.30;30.30;;;;;;5121431;27;47933;-78
2022/03/08 06:34:50;;;;;;;2.60;1.40;;;16.30;30.30;;;;;;5132540;27;46026;-78
2022/03/08 06:37:18;;;;;;;2.35;1.50;;;16.30;30.00;;;;;;5123056;27;45351;-78
2022/03/08 06:39:46;;;;;;;2.38;1.50;;;16.30;30.20;;;;;;5129330;27;45233;-78
2022/03/08 06:42:13;;;;;;;2.03;1.30;;;16.30;31.00;;;;;;5122826;27;46198;-78
2022/03/08 06:44:40;;;;;;;1.98;1.45;;;16.40;31.40;;;;;;5121238;27;45201;-78
2022/03/08 06:47:07;;;;;;;1.92;1.30;;;16.40;31.50;;;;;;5120595;27;45321;-80
2022/03/08 06:49:35;;;;;;;2.55;1.45;;;16.40;31.50;;;;;;5116578;27;45653;-78
2022/03/08 06:52:02;;;;;;;1.95;1.42;;;16.40;31.50;;;;;;5117286;27;47938;-78
2022/03/08 06:54:29;;;;;;;2.30;1.50;;;16.40;31.60;;;;;;5125102;27;45266;-78
2022/03/08 06:56:57;;;;;;;1.30;1.20;;;16.40;32.20;;;;;;5128582;27;45224;-78
2022/03/08 06:59:25;;;;;;;2.15;1.60;;;16.40;32.70;;;;;;5131422;27;45138;-78
2022/03/08 07:01:52;;;;;;;2.03;1.30;;;16.40;32.90;;;;;;5129164;27;45498;-78
2022/03/08 07:04:19;;;;;;;1.27;1.17;;;16.40;33.20;;;;;;5129811;27;45353;-77
2022/03/08 07:06:46;;;;;;;2.33;1.27;;;16.40;33.40;;;;;;5122466;27;45204;-77
2022/03/08 07:09:13;;;;;;;1.52;1.10;;;16.50;33.90;;;;;;5123488;27;45158;-78
2022/03/08 07:11:40;;;;;;;1.80;1.35;;;16.40;33.70;;;;;;5131286;27;46436;-78
2022/03/08 07:14:08;;;;;;;1.30;1.02;;;16.40;33.70;;;;;;5109422;27;45646;-78
2022/03/08 07:16:35;;;;;;;1.63;1.10;;;16.40;33.80;;;;;;5129891;27;45225;-77
2022/03/08 07:19:02;;;;;;;2.28;1.10;;;16.40;34.10;;;;;;5117585;27;45139;-77
2022/03/08 07:21:30;;;;;;;3.13;1.00;;;16.50;34.10;;;;;;5109896;27;46475;-77
2022/03/08 07:23:57;;;;;;;1.77;1.30;;;16.50;34.20;;;;;;5109428;27;45740;-77
2022/03/08 07:26:24;;;;;;;1.33;1.15;;;16.50;34.00;;;;;;5108491;27;45270;-76
2022/03/08 07:28:51;;;;;;;1.63;1.20;;;16.50;34.20;;;;;;5112715;27;45255;-76
2022/03/08 07:31:19;;;;;;;1.30;1.08;;;16.60;34.20;;;;;;5120189;27;46139;-76
2022/03/08 07:33:46;;;;;;;1.35;1.13;;;16.60;34.20;;;;;;5119903;27;45187;-78
2022/03/08 07:36:13;;;;;;;1.77;1.40;;;16.60;34.30;;;;;;5122546;27;45175;-78
2022/03/08 07:38:40;;;;;;;1.40;1.10;;;16.60;34.00;;;;;;5116240;27;45328;-77
2022/03/08 07:41:07;;;;;;;1.85;1.00;;;16.70;34.30;;;;;;5125406;27;45517;-78
2022/03/08 07:43:35;;;;;;;1.60;1.17;;;16.70;34.20;;;;;;5130833;27;45188;-78
2022/03/08 07:46:02;;;;;;;1.85;1.05;;;16.70;35.70;;;;;;5123946;27;45328;-77
2022/03/08 07:48:30;;;;;;;3.05;1.40;;;16.70;34.40;;;;;;5125353;27;45397;-77
2022/03/08 07:50:57;;;;;;;1.70;1.08;;;16.60;34.50;;;;;;5123752;27;46647;-76
2022/03/08 07:53:24;;;;;;;1.70;1.33;;;16.70;34.50;;;;;;5123187;27;45124;-77
2022/03/08 07:55:50;;;;;;;1.40;1.00;;;16.70;34.60;;;;;;5129245;27;45342;-77
2022/03/08 07:58:17;;;;;;;1.92;1.20;;;16.70;34.40;;;;;;5127846;27;45374;-77
2022/03/08 08:00:44;;;;;;;1.10;1.00;;;16.70;34.50;;;;;;5124534;27;46176;-77
2022/03/08 08:03:11;;;;;;;2.78;1.02;;;16.60;34.30;;;;;;5117773;27;45343;-77
2022/03/08 08:05:39;;;;;;;1.58;1.20;;;16.70;34.40;;;;;;5121433;27;45294;-77
2022/03/08 08:08:07;;;;;;;1.20;1.02;;;16.70;34.50;;;;;;5126422;27;45414;-77
2022/03/08 08:10:35;;;;;;;2.10;1.10;;;16.60;34.40;;;;;;5128650;27;45398;-77
2022/03/08 08:13:02;;;;;;;2.65;1.02;;;16.70;34.20;;;;;;5113741;27;45184;-77
2022/03/08 08:15:29;;;;;;;1.42;1.10;;;16.70;34.10;;;;;;5109346;27;45356;-77
2022/03/08 08:17:56;;;;;;;1.98;1.40;;;16.70;34.20;;;;;;5128171;27;45525;-77
2022/03/08 08:20:22;;;;;;;1.10;1.00;;;16.70;34.30;;;;;;5126362;27;48607;-77
2022/03/08 08:22:50;;;;;;;2.38;1.13;;;16.80;34.40;;;;;;5115090;27;45248;-77
2022/03/08 08:25:17;;;;;;;1.60;1.23;;;16.80;34.30;;;;;;5126648;27;45317;-77
2022/03/08 08:27:44;;;;;;;1.60;1.00;;;16.80;33.80;;;;;;5128050;27;45317;-77
2022/03/08 08:30:12;;;;;;;1.77;1.13;;;16.80;35.30;;;;;;5123812;27;46790;-77
2022/03/08 08:32:39;;;;;;;1.20;0.80;;;16.70;34.10;;;;;;5109191;27;45190;-77
2022/03/08 08:35:07;;;;;;;1.23;1.00;;;16.70;34.10;;;;;;5128958;27;45324;-77
2022/03/08 08:37:33;;;;;;;1.73;1.15;;;16.70;34.20;;;;;;5123504;27;45240;-77
2022/03/08 08:40:02;;;;;;;2.97;1.20;;;16.70;34.30;;;;;;5117959;27;45230;-77
2022/03/08 08:42:28;;;;;;;1.50;1.13;;;16.80;34.20;;;;;;5114779;27;45312;-77
2022/03/08 08:44:55;;;;;;;1.73;1.15;;;16.70;33.90;;;;;;5110840;27;45364;-77
2022/03/08 08:47:22;;;;;;;1.45;1.00;;;16.70;34.00;;;;;;5118229;27;45198;-77
2022/03/08 08:49:49;;;;;;;1.63;1.40;;;16.70;34.00;;;;;;5124791;27;46605;-78
2022/03/08 08:52:16;;;;;;;1.40;1.30;;;16.70;33.70;;;;;;5134269;27;45187;-77
2022/03/08 08:54:42;;;;;;;1.58;1.10;;;16.70;33.70;;;;;;5125168;27;45085;-76
2022/03/08 08:57:11;;;;;;;2.10;1.10;;;16.70;33.80;;;;;;5120409;27;45248;-76
2022/03/08 08:59:38;;;;;;;2.28;1.10;;;16.70;34.00;;;;;;5124573;27;46407;-76
2022/03/08 09:02:05;;;;;;;1.65;1.10;;;16.80;33.90;;;;;;5128300;27;45203;-77
2022/03/08 09:04:33;;;;;;;1.50;1.13;;;16.80;33.80;;;;;;5128187;27;45186;-76
2022/03/08 09:07:00;;;;;;;1.67;1.27;;;16.80;34.00;;;;;;5118125;27;45355;-77
2022/03/08 09:09:27;;;;;;;1.60;1.15;;;16.80;33.70;;;;;;5108246;27;46420;-77
2022/03/08 09:11:54;;;;;;;1.35;1.13;;;16.80;33.40;;;;;;5125164;27;45290;-77
2022/03/08 09:14:22;;;;;;;2.25;1.15;;;16.80;33.30;;;;;;5127896;27;45190;-77
2022/03/08 09:16:50;;;;;;;2.25;1.13;;;16.80;33.70;;;;;;5121544;27;45479;-77
2022/03/08 09:19:16;;;;;;;1.88;1.10;;;16.80;33.60;;;;;;5116350;27;46199;-77
2022/03/08 09:21:43;;;;;;;1.38;1.27;;;16.80;33.40;;;;;;5121995;27;45501;-77
2022/03/08 09:24:10;;;;;;;1.35;1.10;;;16.80;33.40;;;;;;5123276;27;45297;-76
2022/03/08 09:26:37;;;;;;;1.98;1.02;;;16.80;33.20;;;;;;5124458;27;45212;-77
2022/03/08 09:29:04;;;;;;;1.70;1.17;;;16.80;33.10;;;;;;5116206;27;47013;-77
2022/03/08 09:31:32;;;;;;;1.75;1.20;;;16.80;33.20;;;;;;5114793;27;45206;-77
2022/03/08 09:33:59;;;;;;;1.75;1.10;;;16.80;33.10;;;;;;5114007;27;45679;-77
2022/03/08 09:36:26;;;;;;;2.10;1.23;;;16.80;33.40;;;;;;5122453;27;45200;-77
2022/03/08 09:38:53;;;;;;;1.55;1.10;;;16.80;33.30;;;;;;5119542;27;46514;-77
2022/03/08 09:41:21;;;;;;;0.80;0.80;;;16.80;33.40;;;;;;5126847;27;45290;-77
2022/03/08 09:43:48;;;;;;;2.13;1.20;;;16.80;33.90;;;;;;5127113;27;45364;-77
2022/03/08 09:46:15;;;;;;;1.45;1.30;;;16.80;33.40;;;;;;5119494;27;45307;-77
2022/03/08 09:48:44;;;;;;;2.00;1.20;;;16.80;33.70;;;;;;5124052;27;48226;-77
2022/03/08 09:51:12;;;;;;;1.30;0.90;;;16.90;33.90;;;;;;5128124;27;45214;-77
2022/03/08 09:53:40;;;;;;;1.80;1.20;;;16.90;33.80;;;;;;5128927;27;45197;-77
2022/03/08 09:56:07;;;;;;;1.20;1.10;;;16.80;33.70;;;;;;5114548;27;45340;-76
2022/03/08 09:58:35;;;;;;;1.20;1.00;;;16.80;33.40;;;;;;5126869;27;47034;-79
2022/03/08 10:01:02;;;;;;;1.65;1.00;;;16.80;33.70;;;;;;5125602;27;45245;-78
2022/03/08 10:03:34;;;;;;;1.05;0.85;;;16.80;32.90;;;;;;5124931;27;45250;-78
2022/03/08 10:06:03;;;;;;;1.23;0.93;;;16.80;33.60;;;;;;5128160;27;45456;-76
2022/03/08 10:08:31;;;;;;;1.08;0.98;;;16.80;33.20;;;;;;5119930;27;45477;-77
2022/03/08 10:10:59;;;;;;;1.30;0.90;;;16.80;33.30;;;;;;5118553;27;45298;-77
2022/03/08 10:13:29;;;;;;;1.75;1.15;;;16.80;32.90;;;;;;5128907;27;45342;-78
2022/03/08 10:16:07;;;;;;;1.58;1.00;;;16.80;32.90;;;;;;5127019;27;45309;-78
2022/03/08 10:18:36;;;;;;;1.20;0.80;;;16.90;33.20;;;;;;5120319;27;46661;-77
2022/03/08 10:21:04;;;;;;;1.17;0.90;;;16.90;33.20;;;;;;5121136;27;45259;-76
2022/03/08 10:23:41;;;;;;;2.60;1.10;;;16.90;33.20;;;;;;5124635;27;45520;-76
2022/03/08 10:26:12;;;;;;;1.40;0.90;;;16.90;33.10;;;;;;5127832;27;45149;-78
2022/03/08 10:28:46;;;;;;;0.98;0.80;;;16.90;33.00;;;;;;5121144;27;46471;-78
2022/03/08 10:31:14;;;;;;;1.48;1.08;;;16.90;32.90;;;;;;5125986;27;45566;-77
2022/03/08 10:33:41;;;;;;;1.20;1.00;;;17.00;32.80;;;;;;5124406;27;45278;-76
2022/03/08 10:36:15;;;;;;;1.75;1.00;;;17.00;32.60;;;;;;5127955;27;45434;-78
2022/03/08 10:38:57;;;;;;;1.90;1.05;;;17.00;32.70;;;;;;5127591;27;48202;-79
2022/03/08 10:41:24;;;;;;;1.27;0.98;;;17.00;32.50;;;;;;5126395;27;45246;-78
2022/03/08 10:43:51;;;;;;;0.98;0.80;;;17.10;32.40;;;;;;5127979;27;45275;-77
2022/03/08 10:46:19;;;;;;;1.52;1.10;;;17.00;32.70;;;;;;5117482;27;45135;-78
2022/03/08 10:48:47;;;;;;;1.40;1.08;;;17.10;33.20;;;;;;5115329;27;45347;-78
2022/03/08 10:51:17;;;;;;;1.23;0.80;;;17.00;33.20;;;;;;5125734;27;45178;-76
2022/03/08 10:53:44;;;;;;;1.48;0.90;;;17.00;33.30;;;;;;5125917;27;45427;-78
2022/03/08 10:56:12;;;;;;;1.02;0.88;;;17.00;33.30;;;;;;5123629;27;45396;-77
2022/03/08 10:58:49;;;;;;;1.05;0.80;;;17.00;33.20;;;;;;5114336;27;45308;-79
2022/03/08 11:01:16;;;;;;;2.00;0.90;;;17.00;33.10;;;;;;5114111;27;45332;-76
2022/03/08 11:03:55;;;;;;;1.02;0.80;;;17.00;33.20;;;;;;5125259;27;45380;-78
2022/03/08 11:06:25;;;;;;;0.80;0.70;;;17.00;33.50;;;;;;5122064;27;45308;-78
2022/03/08 11:08:53;;;;;;;1.35;0.93;;;17.00;33.20;;;;;;5126445;27;47894;-75
2022/03/08 11:11:21;;;;;;;1.52;0.82;;;17.00;33.40;;;;;;5141573;27;45405;-78
2022/03/08 11:13:51;;;;;;;1.70;0.85;;;17.00;33.60;;;;;;5123698;27;45184;-78
2022/03/08 11:16:19;;;;;;;1.33;1.00;;;17.00;33.40;;;;;;5122887;27;45420;-78
2022/03/08 11:18:49;;;;;;;1.50;1.00;;;17.00;32.80;;;;;;5121346;27;46029;-78
2022/03/08 11:21:17;;;;;;;1.58;1.10;;;17.10;33.00;;;;;;5123219;27;45454;-78
2022/03/08 11:23:46;;;;;;;1.30;0.80;;;17.10;32.80;;;;;;5114448;27;45314;-78
2022/03/08 11:26:15;;;;;;;2.25;1.10;;;17.10;33.20;;;;;;5118546;27;45242;-79
2022/03/08 11:28:45;;;;;;;1.65;1.20;;;17.00;32.70;;;;;;5123731;27;46156;-78
2022/03/08 11:31:13;;;;;;;1.08;0.88;;;17.10;32.60;;;;;;5126829;27;45280;-78
2022/03/08 11:33:47;;;;;;;0.82;0.70;;;17.10;32.60;;;;;;5116818;27;45136;-78
2022/03/08 11:36:21;;;;;;;1.45;1.00;;;17.10;33.10;;;;;;5126559;27;45517;-78
2022/03/08 11:39:27;;;;;;;0.70;0.70;;;17.00;34.10;;;;;;5124760;27;47105;-79
2022/03/08 11:41:57;;;;;;;1.25;1.08;;;17.00;33.30;;;;;;5101917;27;45633;-78
2022/03/08 11:44:27;;;;;;;2.78;1.00;;;17.00;33.00;;;;;;5130162;27;45438;-78
2022/03/08 11:47:02;;;;;;;1.10;0.90;;;17.00;33.20;;;;;;5127992;27;45388;-79
2022/03/08 11:49:40;;;;;;;1.60;1.20;;;17.00;33.30;;;;;;5129311;27;46030;-78
2022/03/08 11:52:12;;;;;;;1.63;0.90;;;17.00;32.60;;;;;;5126737;27;45499;-79
2022/03/08 11:54:39;;;;;;;2.25;0.80;;;17.00;32.60;;;;;;5112558;27;45287;-79
2022/03/08 11:57:07;;;;;;;1.15;0.93;;;17.00;33.00;;;;;;5108677;27;45227;-78
2022/03/08 11:59:34;;;;;;;1.55;0.88;;;17.00;33.10;;;;;;5122981;27;46499;-79
2022/03/08 12:02:03;;;;;;;1.10;0.95;;;17.00;33.70;;;;;;5130073;27;45331;-79
2022/03/08 12:04:44;;;;;;;1.02;0.82;;;17.00;33.70;;;;;;5128979;27;45197;-79
2022/03/08 12:07:26;;;;;;;1.60;0.98;;;17.00;33.70;;;;;;5122737;27;45168;-78
2022/03/08 12:10:26;;;;;;;1.80;1.10;;;17.00;33.70;;;;;;5119731;27;48203;-78
2022/03/08 12:12:55;;;;;;;1.40;1.02;;;17.10;33.30;;;;;;5128154;27;45217;-79
2022/03/08 12:15:22;;;;;;;1.08;0.98;;;17.00;33.00;;;;;;5121202;27;45328;-79
2022/03/08 12:18:17;;;;;;;1.10;0.88;;;17.10;33.00;;;;;;5128877;27;45522;-79
2022/03/08 12:20:44;;;;;;;1.60;1.00;;;17.00;32.90;;;;;;5118850;27;46603;-78
2022/03/08 12:23:11;;;;;;;1.40;1.10;;;17.00;32.80;;;;;;5140234;27;45293;-78
2022/03/08 12:25:38;;;;;;;0.88;0.77;;;17.00;33.30;;;;;;5135082;27;45447;-79
2022/03/08 12:28:07;;;;;;;1.30;1.20;;;17.00;32.90;;;;;;5128908;27;45383;-79
2022/03/08 12:30:41;;;;;;;1.55;1.20;;;17.00;33.10;;;;;;5125135;27;48040;-78
2022/03/08 12:33:08;;;;;;;1.33;0.73;;;17.00;32.90;;;;;;5122451;27;45164;-79
2022/03/08 12:35:35;;;;;;;1.05;0.95;;;17.00;33.10;;;;;;5110031;27;45151;-79
2022/03/08 12:38:03;;;;;;;1.70;1.20;;;17.00;33.10;;;;;;5112460;27;45457;-79
2022/03/08 12:40:33;;;;;;;1.77;1.00;;;17.00;33.50;;;;;;5114278;27;46342;-78
2022/03/08 12:43:03;;;;;;;3.00;1.00;;;17.00;33.40;;;;;;5112868;27;45500;-78
2022/03/08 12:45:33;;;;;;;1.05;0.90;;;17.00;33.30;;;;;;5127621;27;45362;-78
2022/03/08 12:48:04;;;;;;;1.15;1.00;;;16.90;33.50;;;;;;5128193;27;45360;-79
2022/03/08 12:50:32;;;;;;;1.48;1.23;;;17.00;34.00;;;;;;5127786;27;46197;-79
2022/03/08 12:53:01;;;;;;;2.08;1.20;;;17.00;33.70;;;;;;5117756;27;45300;-79